createdAt,value
2019-01-30T00:01:56.585Z,1.30
2019-01-30T00:04:23.909Z,1.30
2019-01-30T00:06:51.271Z,1.30
2019-01-30T00:09:18.534Z,1.30
2019-01-30T00:11:45.909Z,1.30
2019-01-30T00:14:13.261Z,1.30
2019-01-30T00:16:40.494Z,1.30
2019-01-30T00:19:07.814Z,1.30
2019-01-30T00:21:35.157Z,1.30
2019-01-30T00:24:02.495Z,1.20
2019-01-30T00:26:29.790Z,1.20
2019-01-30T00:28:57.154Z,1.20
2019-01-30T00:31:24.497Z,1.20
2019-01-30T00:33:51.818Z,1.20
2019-01-30T00:36:19.286Z,1.20
2019-01-30T00:38:46.637Z,1.20
2019-01-30T00:41:13.860Z,1.20
2019-01-30T00:43:41.201Z,1.20
2019-01-30T00:46:08.523Z,1.20
2019-01-30T00:48:35.892Z,1.20
2019-01-30T00:51:03.237Z,1.20
2019-01-30T00:53:30.475Z,1.20
2019-01-30T00:55:57.802Z,1.20
2019-01-30T00:58:25.078Z,1.20
2019-01-30T01:00:52.403Z,1.20
2019-01-30T01:03:19.619Z,1.20
2019-01-30T01:05:46.999Z,1.10
2019-01-30T01:08:14.227Z,1.10
2019-01-30T01:10:41.559Z,1.10
2019-01-30T01:13:08.911Z,1.10
2019-01-30T01:15:36.307Z,1.10
2019-01-30T01:18:03.845Z,1.10
2019-01-30T01:20:31.241Z,1.10
2019-01-30T01:22:58.572Z,1.20
2019-01-30T01:25:25.932Z,1.20
2019-01-30T01:27:53.276Z,1.20
2019-01-30T01:30:25.176Z,1.20
2019-01-30T01:32:51.860Z,1.20
2019-01-30T01:35:19.312Z,1.20
2019-01-30T01:37:46.530Z,1.20
2019-01-30T01:40:14.279Z,1.20
2019-01-30T01:42:41.647Z,1.10
2019-01-30T01:45:11.760Z,1.10
2019-01-30T01:47:39.064Z,1.10
2019-01-30T01:50:07.978Z,1.10
2019-01-30T01:52:35.314Z,1.20
2019-01-30T01:55:03.478Z,1.20
2019-01-30T01:57:30.800Z,1.10
2019-01-30T01:59:58.140Z,1.10
2019-01-30T02:02:25.505Z,1.10
2019-01-30T02:04:52.874Z,1.10
2019-01-30T02:07:20.296Z,1.10
2019-01-30T02:09:47.511Z,1.10
2019-01-30T02:12:14.866Z,1.10
2019-01-30T02:14:42.495Z,1.10
2019-01-30T02:17:09.703Z,1.10
2019-01-30T02:19:36.916Z,1.10
2019-01-30T02:22:04.209Z,1.10
2019-01-30T02:24:31.564Z,1.10
2019-01-30T02:26:58.998Z,1.10
2019-01-30T02:29:26.301Z,1.00
2019-01-30T02:31:53.604Z,1.10
2019-01-30T02:34:20.926Z,1.00
2019-01-30T02:36:57.512Z,1.00
2019-01-30T02:39:25.338Z,1.00
2019-01-30T02:41:52.818Z,1.00
2019-01-30T02:44:20.522Z,1.00
2019-01-30T02:46:47.865Z,1.00
2019-01-30T02:49:15.183Z,1.00
2019-01-30T02:51:42.490Z,1.00
2019-01-30T02:54:09.837Z,1.00
2019-01-30T02:56:37.146Z,0.90
2019-01-30T02:59:04.475Z,1.00
2019-01-30T03:01:34.011Z,1.00
2019-01-30T03:04:01.421Z,0.90
2019-01-30T03:06:28.834Z,1.00
2019-01-30T03:08:56.379Z,0.90
2019-01-30T03:11:23.650Z,1.00
2019-01-30T03:13:50.947Z,1.00
2019-01-30T03:16:18.321Z,1.00
2019-01-30T03:18:45.623Z,1.00
2019-01-30T03:21:12.835Z,1.00
2019-01-30T03:23:40.163Z,1.00
2019-01-30T03:26:07.449Z,1.00
2019-01-30T03:28:34.691Z,1.00
2019-01-30T03:31:16.854Z,1.00
2019-01-30T03:33:31.235Z,1.00
2019-01-30T03:35:58.607Z,1.00
2019-01-30T03:38:25.835Z,1.00
2019-01-30T03:40:53.157Z,1.10
2019-01-30T03:43:20.420Z,1.10
2019-01-30T03:45:47.660Z,1.10
2019-01-30T03:48:15.097Z,1.10
2019-01-30T03:50:42.406Z,1.10
2019-01-30T03:53:09.655Z,1.10
2019-01-30T03:55:37.072Z,1.10
2019-01-30T03:58:04.306Z,1.10
2019-01-30T04:00:31.649Z,1.10
2019-01-30T04:02:59.022Z,1.10
2019-01-30T04:05:26.338Z,1.10
2019-01-30T04:07:53.596Z,1.10
2019-01-30T04:10:21.502Z,1.10
2019-01-30T04:12:48.937Z,1.10
2019-01-30T04:15:16.440Z,1.10
2019-01-30T04:17:43.749Z,1.10
2019-01-30T04:20:11.954Z,1.10
2019-01-30T04:22:39.211Z,1.10
2019-01-30T04:25:07.139Z,1.00
2019-01-30T04:27:34.517Z,1.00
2019-01-30T04:30:01.739Z,1.00
2019-01-30T04:32:29.075Z,1.00
2019-01-30T04:34:56.409Z,1.00
2019-01-30T04:37:23.641Z,1.00
2019-01-30T04:39:50.965Z,1.00
2019-01-30T04:42:18.184Z,1.00
2019-01-30T04:44:45.536Z,1.00
2019-01-30T04:47:12.747Z,1.00
2019-01-30T04:49:39.954Z,1.00
2019-01-30T04:52:07.322Z,0.90
2019-01-30T04:54:34.576Z,1.00
2019-01-30T04:57:01.874Z,0.90
2019-01-30T04:59:29.363Z,1.00
2019-01-30T05:01:56.756Z,1.00
2019-01-30T05:04:24.085Z,1.00
2019-01-30T05:06:51.464Z,1.00
2019-01-30T05:09:18.777Z,1.00
2019-01-30T05:11:46.093Z,1.00
2019-01-30T05:14:13.333Z,1.00
2019-01-30T05:16:40.553Z,1.00
2019-01-30T05:19:07.825Z,1.00
2019-01-30T05:21:35.163Z,1.00
2019-01-30T05:24:02.468Z,1.00
2019-01-30T05:26:29.853Z,1.00
2019-01-30T05:28:57.241Z,1.00
2019-01-30T05:31:24.564Z,1.00
2019-01-30T05:33:51.895Z,1.00
2019-01-30T05:36:19.270Z,1.00
2019-01-30T05:38:46.664Z,1.00
2019-01-30T05:41:13.988Z,1.00
2019-01-30T05:43:42.584Z,1.00
2019-01-30T05:46:09.949Z,1.10
2019-01-30T05:48:37.257Z,1.10
2019-01-30T05:51:04.572Z,1.10
2019-01-30T05:53:31.879Z,1.10
2019-01-30T05:55:59.148Z,1.20
2019-01-30T05:58:26.517Z,1.20
2019-01-30T06:00:53.890Z,1.20
2019-01-30T06:03:21.197Z,1.20
2019-01-30T06:05:48.606Z,1.20
2019-01-30T06:08:15.933Z,1.20
2019-01-30T06:10:43.269Z,1.20
2019-01-30T06:13:10.593Z,1.20
2019-01-30T06:15:37.822Z,1.20
2019-01-30T06:18:05.138Z,1.20
2019-01-30T06:20:32.357Z,1.20
2019-01-30T06:23:01.628Z,1.20
2019-01-30T06:25:28.890Z,1.20
2019-01-30T06:27:56.380Z,1.20
2019-01-30T06:30:23.663Z,1.20
2019-01-30T06:32:51.017Z,1.10
2019-01-30T06:35:18.478Z,1.00
2019-01-30T06:37:45.881Z,0.80
2019-01-30T06:40:15.641Z,0.70
2019-01-30T06:42:43.106Z,0.50
2019-01-30T06:45:10.719Z,0.40
2019-01-30T06:47:37.955Z,0.30
2019-01-30T06:50:06.017Z,0.30
2019-01-30T06:52:34.574Z,0.30
2019-01-30T06:55:01.885Z,0.30
2019-01-30T06:57:29.195Z,0.20
2019-01-30T06:59:56.507Z,0.20
2019-01-30T07:02:32.081Z,0.30
2019-01-30T07:04:53.143Z,0.30
2019-01-30T07:07:20.578Z,0.30
2019-01-30T07:09:47.812Z,0.40
2019-01-30T07:12:15.170Z,0.40
2019-01-30T07:14:42.477Z,0.40
2019-01-30T07:17:09.780Z,0.40
2019-01-30T07:19:37.128Z,0.40
2019-01-30T07:22:04.440Z,0.30
2019-01-30T07:24:31.769Z,0.30
2019-01-30T07:26:59.193Z,0.30
2019-01-30T07:29:26.601Z,0.30
2019-01-30T07:31:54.030Z,0.20
2019-01-30T07:34:21.259Z,0.20
2019-01-30T07:36:48.499Z,0.20
2019-01-30T07:39:15.705Z,0.20
2019-01-30T07:41:43.057Z,0.20
2019-01-30T07:44:10.371Z,0.30
2019-01-30T07:46:37.691Z,0.30
2019-01-30T07:49:05.018Z,0.40
2019-01-30T07:51:32.333Z,0.30
2019-01-30T07:53:59.690Z,0.30
2019-01-30T07:56:28.945Z,0.30
2019-01-30T07:58:56.417Z,0.30
2019-01-30T08:01:23.638Z,0.30
2019-01-30T08:03:50.992Z,0.30
2019-01-30T08:06:19.628Z,0.40
2019-01-30T08:08:49.616Z,0.40
2019-01-30T08:11:16.388Z,0.50
2019-01-30T08:13:43.580Z,0.50
2019-01-30T08:16:10.903Z,0.60
2019-01-30T08:18:38.144Z,0.60
2019-01-30T08:21:05.432Z,0.70
2019-01-30T08:23:32.665Z,0.70
2019-01-30T08:26:00.172Z,0.80
2019-01-30T08:28:27.551Z,0.80
2019-01-30T08:30:55.222Z,0.80
2019-01-30T08:33:22.657Z,0.90
2019-01-30T08:35:49.909Z,0.90
2019-01-30T08:38:17.232Z,0.90
2019-01-30T08:40:44.632Z,0.80
2019-01-30T08:43:11.983Z,0.80
2019-01-30T08:45:39.328Z,0.80
2019-01-30T08:48:06.776Z,0.80
2019-01-30T08:50:34.152Z,0.80
2019-01-30T08:53:01.369Z,0.90
2019-01-30T08:55:28.736Z,0.90
2019-01-30T08:57:56.096Z,0.90
2019-01-30T09:00:24.392Z,1.00
2019-01-30T09:02:52.461Z,1.00
2019-01-30T09:05:19.784Z,1.00
2019-01-30T09:07:47.097Z,1.10
2019-01-30T09:10:16.598Z,1.10
2019-01-30T09:12:43.874Z,1.10
2019-01-30T09:15:12.380Z,1.10
2019-01-30T09:17:39.698Z,1.10
2019-01-30T09:20:10.083Z,1.10
2019-01-30T09:22:37.417Z,1.10
2019-01-30T09:25:05.633Z,1.20
2019-01-30T09:27:32.972Z,1.10
2019-01-30T09:30:00.344Z,1.10
2019-01-30T09:32:27.800Z,1.10
2019-01-30T09:34:55.121Z,1.10
2019-01-30T09:37:22.523Z,1.20
2019-01-30T09:39:49.846Z,1.20
2019-01-30T09:42:17.175Z,1.30
2019-01-30T09:44:44.478Z,1.30
2019-01-30T09:47:11.934Z,1.30
2019-01-30T09:49:39.253Z,1.40
2019-01-30T09:52:06.604Z,1.40
2019-01-30T09:54:34.403Z,1.40
2019-01-30T09:57:01.780Z,1.40
2019-01-30T09:59:29.141Z,1.40
2019-01-30T10:01:56.472Z,1.40
2019-01-30T10:04:23.781Z,1.40
2019-01-30T10:06:51.083Z,1.40
2019-01-30T10:09:18.406Z,1.50
2019-01-30T10:11:45.719Z,1.50
2019-01-30T10:14:13.040Z,1.50
2019-01-30T10:16:40.438Z,1.50
2019-01-30T10:19:07.876Z,1.50
2019-01-30T10:21:35.273Z,1.50
2019-01-30T10:24:02.621Z,1.50
2019-01-30T10:26:29.999Z,1.60
2019-01-30T10:28:57.293Z,1.60
2019-01-30T10:31:24.697Z,1.60
2019-01-30T10:33:52.101Z,1.70
2019-01-30T10:36:19.438Z,1.70
2019-01-30T10:38:46.759Z,1.60
2019-01-30T10:41:14.145Z,1.70
2019-01-30T10:43:41.467Z,1.70
2019-01-30T10:46:08.840Z,1.70
2019-01-30T10:48:36.559Z,1.70
2019-01-30T10:51:04.050Z,1.70
2019-01-30T10:53:31.385Z,1.80
2019-01-30T10:55:58.691Z,1.80
2019-01-30T10:58:25.997Z,1.80
2019-01-30T11:00:53.257Z,1.80
2019-01-30T11:03:20.597Z,1.90
2019-01-30T11:05:48.161Z,1.90
2019-01-30T11:08:15.523Z,1.90
2019-01-30T11:10:42.833Z,1.90
2019-01-30T11:13:10.142Z,1.90
2019-01-30T11:15:37.483Z,1.90
2019-01-30T11:18:06.999Z,1.90
2019-01-30T11:20:34.199Z,1.90
2019-01-30T11:23:01.426Z,2.00
2019-01-30T11:25:31.044Z,2.00
2019-01-30T11:27:58.305Z,2.10
2019-01-30T11:30:27.061Z,2.10
2019-01-30T11:32:55.589Z,2.10
2019-01-30T11:35:23.013Z,2.10
2019-01-30T11:37:50.388Z,2.10
2019-01-30T11:40:18.301Z,2.00
2019-01-30T11:42:45.736Z,1.90
2019-01-30T11:45:15.929Z,1.90
2019-01-30T11:47:43.257Z,1.90
2019-01-30T11:50:11.265Z,1.80
2019-01-30T11:52:38.616Z,1.80
2019-01-30T11:55:06.856Z,1.80
2019-01-30T11:57:34.177Z,1.90
2019-01-30T12:00:01.559Z,1.90
2019-01-30T12:02:28.944Z,1.90
2019-01-30T12:04:56.269Z,1.90
2019-01-30T12:07:23.539Z,2.00
2019-01-30T12:09:50.875Z,2.00
2019-01-30T12:12:18.289Z,2.10
2019-01-30T12:14:45.557Z,2.10
2019-01-30T12:17:12.880Z,2.10
2019-01-30T12:19:40.203Z,2.10
2019-01-30T12:22:07.636Z,2.10
2019-01-30T12:24:34.958Z,2.10
2019-01-30T12:27:02.280Z,2.10
2019-01-30T12:29:29.757Z,2.20
2019-01-30T12:31:57.087Z,2.20
2019-01-30T12:34:28.426Z,2.20
2019-01-30T12:36:53.641Z,2.10
2019-01-30T12:39:21.030Z,2.10
2019-01-30T12:41:48.391Z,2.10
2019-01-30T12:44:15.808Z,2.10
2019-01-30T12:46:43.011Z,2.00
2019-01-30T12:49:10.361Z,2.00
2019-01-30T12:51:37.585Z,1.90
2019-01-30T12:54:05.001Z,1.80
2019-01-30T12:56:32.316Z,1.70
2019-01-30T12:59:00.092Z,1.70
2019-01-30T13:01:27.444Z,1.60
2019-01-30T13:03:54.746Z,1.60
2019-01-30T13:06:22.151Z,1.70
2019-01-30T13:08:49.355Z,1.60
2019-01-30T13:11:16.561Z,1.60
2019-01-30T13:13:43.928Z,1.60
2019-01-30T13:16:11.268Z,1.60
2019-01-30T13:18:38.621Z,1.60
2019-01-30T13:21:06.071Z,1.50
2019-01-30T13:23:33.264Z,1.50
2019-01-30T13:26:00.612Z,1.50
2019-01-30T13:28:27.913Z,1.50
2019-01-30T13:30:55.262Z,1.50
2019-01-30T13:33:22.614Z,1.50
2019-01-30T13:35:49.950Z,1.50
2019-01-30T13:38:17.276Z,1.40
2019-01-30T13:40:44.578Z,1.40
2019-01-30T13:43:11.916Z,1.40
2019-01-30T13:45:39.222Z,1.40
2019-01-30T13:48:15.250Z,1.40
2019-01-30T13:50:42.605Z,1.40
2019-01-30T13:53:10.018Z,1.40
2019-01-30T13:55:37.344Z,1.50
2019-01-30T13:58:04.757Z,1.50
2019-01-30T14:00:33.714Z,1.50
2019-01-30T14:03:01.029Z,1.40
2019-01-30T14:05:28.562Z,1.40
2019-01-30T14:07:56.160Z,1.40
2019-01-30T14:10:23.592Z,1.40
2019-01-30T14:12:50.904Z,1.40
2019-01-30T14:15:19.675Z,1.40
2019-01-30T14:17:46.985Z,1.40
2019-01-30T14:20:14.739Z,1.40
2019-01-30T14:22:42.189Z,1.40
2019-01-30T14:25:10.179Z,1.40
2019-01-30T14:27:37.590Z,1.40
2019-01-30T14:30:08.787Z,1.40
2019-01-30T14:32:36.247Z,1.40
2019-01-30T14:35:10.793Z,1.40
2019-01-30T14:37:33.838Z,1.40
2019-01-30T14:40:01.160Z,1.40
2019-01-30T14:42:28.508Z,1.30
2019-01-30T14:44:55.714Z,1.30
2019-01-30T14:47:23.215Z,1.30
2019-01-30T14:49:50.521Z,1.20
2019-01-30T14:52:18.967Z,1.20
2019-01-30T14:54:46.291Z,1.20
2019-01-30T14:57:13.493Z,1.20
2019-01-30T14:59:40.849Z,1.20
2019-01-30T15:02:08.274Z,1.20
2019-01-30T15:04:35.688Z,1.10
2019-01-30T15:07:03.038Z,1.10
2019-01-30T15:09:30.336Z,1.10
2019-01-30T15:11:57.576Z,1.00
2019-01-30T15:14:25.020Z,1.10
2019-01-30T15:16:52.502Z,1.00
2019-01-30T15:19:19.954Z,1.00
2019-01-30T15:21:47.274Z,1.00
2019-01-30T15:24:14.574Z,0.90
2019-01-30T15:26:41.968Z,0.90
2019-01-30T15:29:09.188Z,0.90
2019-01-30T15:31:36.423Z,0.90
2019-01-30T15:34:03.674Z,0.90
2019-01-30T15:36:31.071Z,0.80
2019-01-30T15:38:58.414Z,0.80
2019-01-30T15:41:25.736Z,0.80
2019-01-30T15:43:55.833Z,0.80
2019-01-30T15:46:23.132Z,0.80
2019-01-30T15:48:50.334Z,0.80
2019-01-30T15:51:17.541Z,0.80
2019-01-30T15:53:44.858Z,0.80
2019-01-30T15:56:12.154Z,0.80
2019-01-30T15:58:39.603Z,0.90
2019-01-30T16:01:14.360Z,0.90
2019-01-30T16:03:41.716Z,0.90
2019-01-30T16:06:09.024Z,0.90
2019-01-30T16:08:36.351Z,0.90
2019-01-30T16:11:03.749Z,0.90
2019-01-30T16:13:31.083Z,0.90
2019-01-30T16:16:00.445Z,0.80
2019-01-30T16:18:27.815Z,0.80
2019-01-30T16:20:55.105Z,0.80
2019-01-30T16:23:22.353Z,0.90
2019-01-30T16:25:49.736Z,0.90
2019-01-30T16:28:17.012Z,0.90
2019-01-30T16:30:44.336Z,0.90
2019-01-30T16:33:11.562Z,0.90
2019-01-30T16:35:38.861Z,0.90
2019-01-30T16:38:06.233Z,0.90
2019-01-30T16:40:33.615Z,0.90
2019-01-30T16:43:00.844Z,0.90
2019-01-30T16:45:28.061Z,0.90
2019-01-30T16:47:55.389Z,0.90
2019-01-30T16:50:22.739Z,0.80
2019-01-30T16:52:49.945Z,0.80
2019-01-30T16:55:17.674Z,0.80
2019-01-30T16:57:44.899Z,0.80
2019-01-30T17:00:16.394Z,0.80
2019-01-30T17:02:43.702Z,0.80
2019-01-30T17:05:12.337Z,0.80
2019-01-30T17:07:39.711Z,0.80
2019-01-30T17:10:08.120Z,0.80
2019-01-30T17:12:35.354Z,0.80
2019-01-30T17:15:04.047Z,0.80
2019-01-30T17:17:31.406Z,0.80
2019-01-30T17:19:58.731Z,0.70
2019-01-30T17:22:26.179Z,0.80
2019-01-30T17:24:53.580Z,0.80
2019-01-30T17:27:20.789Z,0.70
2019-01-30T17:29:48.112Z,0.70
2019-01-30T17:32:15.358Z,0.70
2019-01-30T17:34:42.662Z,0.70
2019-01-30T17:37:10.000Z,0.70
2019-01-30T17:39:37.393Z,0.70
2019-01-30T17:42:04.699Z,0.70
2019-01-30T17:44:32.055Z,0.70
2019-01-30T17:46:59.423Z,0.70
2019-01-30T17:49:26.773Z,0.70
2019-01-30T17:51:54.111Z,0.70
2019-01-30T17:54:21.545Z,0.70
2019-01-30T17:56:48.883Z,0.70
2019-01-30T17:59:16.193Z,0.70
2019-01-30T18:01:43.568Z,0.70
2019-01-30T18:04:10.873Z,0.70
2019-01-30T18:06:38.125Z,0.70
2019-01-30T18:09:08.034Z,0.70
2019-01-30T18:11:35.371Z,0.60
2019-01-30T18:14:02.821Z,0.60
2019-01-30T18:16:30.152Z,0.60
2019-01-30T18:18:57.513Z,0.60
2019-01-30T18:21:24.825Z,0.60
2019-01-30T18:23:52.173Z,0.60
2019-01-30T18:26:19.405Z,0.60
2019-01-30T18:28:47.960Z,0.70
2019-01-30T18:31:15.507Z,0.70
2019-01-30T18:33:42.921Z,0.70
2019-01-30T18:36:10.276Z,0.70
2019-01-30T18:38:37.530Z,0.60
2019-01-30T18:41:04.861Z,0.60
2019-01-30T18:43:32.059Z,0.60
2019-01-30T18:45:59.378Z,0.70
2019-01-30T18:48:26.666Z,0.60
2019-01-30T18:50:56.782Z,0.60
2019-01-30T18:53:23.275Z,0.60
2019-01-30T18:55:50.626Z,0.60
2019-01-30T18:58:17.972Z,0.60
2019-01-30T19:00:45.423Z,0.60
2019-01-30T19:03:19.547Z,0.60
2019-01-30T19:05:47.260Z,0.50
2019-01-30T19:08:14.612Z,0.50
2019-01-30T19:10:41.955Z,0.50
2019-01-30T19:13:09.293Z,0.50
2019-01-30T19:15:36.625Z,0.50
2019-01-30T19:18:04.562Z,0.50
2019-01-30T19:20:34.568Z,0.50
2019-01-30T19:23:01.839Z,0.50
2019-01-30T19:25:29.171Z,0.40
2019-01-30T19:27:56.488Z,0.40
2019-01-30T19:30:28.583Z,0.40
2019-01-30T19:32:55.938Z,0.40
2019-01-30T19:35:23.310Z,0.40
2019-01-30T19:37:50.593Z,0.40
2019-01-30T19:40:17.811Z,0.40
2019-01-30T19:42:45.165Z,0.40
2019-01-30T19:45:13.800Z,0.40
2019-01-30T19:47:41.320Z,0.40
2019-01-30T19:50:12.030Z,0.40
2019-01-30T19:52:39.374Z,0.40
2019-01-30T19:55:11.527Z,0.40
2019-01-30T19:57:38.872Z,0.40
2019-01-30T20:00:10.050Z,0.50
2019-01-30T20:02:37.481Z,0.50
2019-01-30T20:05:06.901Z,0.50
2019-01-30T20:07:34.231Z,0.50
2019-01-30T20:10:01.602Z,0.60
2019-01-30T20:12:28.851Z,0.60
2019-01-30T20:14:56.357Z,0.60
2019-01-30T20:17:23.731Z,0.60
2019-01-30T20:19:51.124Z,0.70
2019-01-30T20:22:18.524Z,0.70
2019-01-30T20:24:45.875Z,0.70
2019-01-30T20:27:13.240Z,0.70
2019-01-30T20:29:40.679Z,0.80
2019-01-30T20:32:08.211Z,0.80
2019-01-30T20:34:35.514Z,0.80
2019-01-30T20:37:02.894Z,0.80
2019-01-30T20:39:30.312Z,0.80
2019-01-30T20:41:57.836Z,0.80
2019-01-30T20:44:25.246Z,0.80
2019-01-30T20:46:52.530Z,0.80
2019-01-30T20:49:22.336Z,0.80
2019-01-30T20:51:49.686Z,0.90
2019-01-30T20:54:17.033Z,0.80
2019-01-30T20:56:46.697Z,0.90
2019-01-30T20:59:14.068Z,0.80
2019-01-30T21:01:41.422Z,0.90
2019-01-30T21:04:08.797Z,0.90
2019-01-30T21:06:36.052Z,0.90
2019-01-30T21:09:06.986Z,0.90
2019-01-30T21:11:34.326Z,0.90
2019-01-30T21:14:01.774Z,0.90
2019-01-30T21:16:29.139Z,0.90
2019-01-30T21:18:56.522Z,0.90
2019-01-30T21:21:23.874Z,0.90
2019-01-30T21:23:51.210Z,0.80
2019-01-30T21:26:18.581Z,0.90
2019-01-30T21:28:45.929Z,0.80
2019-01-30T21:31:13.290Z,0.80
2019-01-30T21:33:40.730Z,0.80
2019-01-30T21:36:08.078Z,0.80
2019-01-30T21:38:35.464Z,0.80
2019-01-30T21:41:02.882Z,0.80
2019-01-30T21:43:30.661Z,0.80
2019-01-30T21:45:58.032Z,0.80
2019-01-30T21:48:25.398Z,0.80
2019-01-30T21:50:52.742Z,0.80
2019-01-30T21:53:20.126Z,0.80
2019-01-30T21:55:47.480Z,0.80
2019-01-30T21:58:14.864Z,0.70
2019-01-30T22:00:42.230Z,0.70
2019-01-30T22:03:09.597Z,0.70
2019-01-30T22:05:37.298Z,0.70
2019-01-30T22:08:05.152Z,0.60
2019-01-30T22:10:32.640Z,0.60
2019-01-30T22:13:00.118Z,0.60
2019-01-30T22:15:27.458Z,0.60
2019-01-30T22:17:54.879Z,0.60
2019-01-30T22:20:23.996Z,0.50
2019-01-30T22:22:51.452Z,0.50
2019-01-30T22:25:20.591Z,0.50
2019-01-30T22:27:48.181Z,0.50
2019-01-30T22:30:17.974Z,0.50
2019-01-30T22:32:45.369Z,0.50
2019-01-30T22:35:12.790Z,0.50
2019-01-30T22:37:40.161Z,0.40
2019-01-30T22:40:08.485Z,0.40
2019-01-30T22:42:35.873Z,0.30
2019-01-30T22:45:04.619Z,0.30
2019-01-30T22:47:32.001Z,0.30
2019-01-30T22:49:59.307Z,0.20
2019-01-30T22:52:26.767Z,0.20
2019-01-30T22:54:54.115Z,0.20
2019-01-30T22:57:21.451Z,0.20
2019-01-30T22:59:48.763Z,0.20
2019-01-30T23:02:16.497Z,0.20
2019-01-30T23:05:08.790Z,0.20
2019-01-30T23:08:09.974Z,0.20
2019-01-30T23:11:05.453Z,0.20
2019-01-30T23:13:40.379Z,0.20
2019-01-30T23:17:16.687Z,0.20
2019-01-30T23:20:07.449Z,0.20
2019-01-30T23:23:06.637Z,0.20
2019-01-30T23:25:51.131Z,0.20
2019-01-30T23:29:03.177Z,0.20
2019-01-30T23:31:44.400Z,0.10
2019-01-30T23:34:34.417Z,0.10
2019-01-30T23:37:23.849Z,0.10
2019-01-30T23:40:28.815Z,0.00
2019-01-30T23:43:46.826Z,0.00
2019-01-30T23:46:55.672Z,-0.10
2019-01-30T23:49:47.340Z,-0.10
2019-01-30T23:52:35.932Z,-0.10
2019-01-30T23:55:53.313Z,-0.10
2019-01-30T23:58:44.897Z,-0.10
